Time;durP1;ratioP1;P1;durP2;ratioP2;P2;SDS_P1;SDS_P2;PMS_P1;PMS_P2;Temp;Humidity;BMP_temperature;BMP_pressure;BME280_temperature;BME280_humidity;BME280_pressure;Samples;Min_cycle;Max_cycle;Signal;HPM_P1;HPM_P2
2022/09/17 00:00:08;;;;;;;8.799999;7.4;;;;;;;10.29;90.99805;94806.52;;;;
2022/09/17 00:01:09;;;;;;;8.799999;7.4;;;;;;;10.29;90.99805;94806.52;;;;
2022/09/17 00:02:15;;;;;;;8.799999;7.4;;;;;;;10.29;90.99805;94806.52;;;;
2022/09/17 00:03:16;;;;;;;8.799999;7.4;;;;;;;10.29;90.99805;94806.52;;;;
2022/09/17 00:04:16;;;;;;;8.799999;7.4;;;;;;;10.29;90.99805;94806.52;;;;
2022/09/17 00:05:17;;;;;;;11.8;8.049999;;;;;;;10.06;91.33691;94807.67;;;;
2022/09/17 00:06:18;;;;;;;11.8;8.049999;;;;;;;10.06;91.33691;94807.67;;;;
2022/09/17 00:07:19;;;;;;;11.8;8.049999;;;;;;;10.06;91.33691;94807.67;;;;
2022/09/17 00:08:20;;;;;;;11.8;8.049999;;;;;;;10.06;91.33691;94807.67;;;;
2022/09/17 00:09:20;;;;;;;11.8;8.049999;;;;;;;10.06;91.33691;94807.67;;;;
2022/09/17 00:10:22;;;;;;;11.8;8.049999;;;;;;;10.06;91.33691;94807.67;;;;
2022/09/17 00:11:23;;;;;;;11.8;8.049999;;;;;;;10.06;91.33691;94807.67;;;;
2022/09/17 00:12:25;;;;;;;11.8;8.049999;;;;;;;10.06;91.33691;94807.67;;;;
2022/09/17 00:13:26;;;;;;;11.8;8.049999;;;;;;;10.06;91.33691;94807.67;;;;
2022/09/17 00:14:26;;;;;;;11.8;8.049999;;;;;;;10.06;91.33691;94807.67;;;;
2022/09/17 00:15:27;;;;;;;11.8;8.049999;;;;;;;10.06;91.33691;94807.67;;;;
2022/09/17 00:16:27;;;;;;;10.85;7.55;;;;;;;10.01;91.64746;94808.84;;;;
2022/09/17 00:17:31;;;;;;;10.85;7.55;;;;;;;10.01;91.64746;94808.84;;;;
2022/09/17 00:18:32;;;;;;;10.85;7.55;;;;;;;10.01;91.64746;94808.84;;;;
2022/09/17 00:19:32;;;;;;;10.85;7.55;;;;;;;10.01;91.64746;94808.84;;;;
2022/09/17 00:20:33;;;;;;;10.85;7.55;;;;;;;10.01;91.64746;94808.84;;;;
2022/09/17 00:21:38;;;;;;;10.85;7.55;;;;;;;10.01;91.64746;94808.84;;;;
2022/09/17 00:22:39;;;;;;;10.85;7.55;;;;;;;10.01;91.64746;94808.84;;;;
2022/09/17 00:23:40;;;;;;;10.85;7.55;;;;;;;10.01;91.64746;94808.84;;;;
2022/09/17 00:24:40;;;;;;;10.85;7.55;;;;;;;10.01;91.64746;94808.84;;;;
2022/09/17 00:25:41;;;;;;;10.85;7.55;;;;;;;10.01;91.64746;94808.84;;;;
2022/09/17 00:26:44;;;;;;;8.299999;6.299999;;;;;;;10.1;91.88965;94807.12;;;;
2022/09/17 00:27:45;;;;;;;8.299999;6.299999;;;;;;;10.1;91.88965;94807.12;;;;
2022/09/17 00:28:48;;;;;;;8.299999;6.299999;;;;;;;10.1;91.88965;94807.12;;;;
2022/09/17 00:29:50;;;;;;;8.299999;6.299999;;;;;;;10.1;91.88965;94807.12;;;;
2022/09/17 00:30:50;;;;;;;8.299999;6.299999;;;;;;;10.1;91.88965;94807.12;;;;
2022/09/17 00:31:51;;;;;;;8.299999;6.299999;;;;;;;10.1;91.88965;94807.12;;;;
2022/09/17 00:32:52;;;;;;;8.299999;6.299999;;;;;;;10.1;91.88965;94807.12;;;;
2022/09/17 00:33:52;;;;;;;8.299999;6.299999;;;;;;;10.1;91.88965;94807.12;;;;
2022/09/17 00:34:53;;;;;;;8.299999;6.299999;;;;;;;10.1;91.88965;94807.12;;;;
2022/09/17 00:35:54;;;;;;;8.299999;6.299999;;;;;;;10.1;91.88965;94807.12;;;;
2022/09/17 00:36:58;;;;;;;7.050001;5.9;;;;;;;10.17;91.83105;94817.11;;;;
2022/09/17 00:37:59;;;;;;;7.050001;5.9;;;;;;;10.17;91.83105;94817.11;;;;
2022/09/17 00:39:00;;;;;;;7.050001;5.9;;;;;;;10.17;91.83105;94817.11;;;;
2022/09/17 00:40:01;;;;;;;7.050001;5.9;;;;;;;10.17;91.83105;94817.11;;;;
2022/09/17 00:41:03;;;;;;;7.050001;5.9;;;;;;;10.17;91.83105;94817.11;;;;
2022/09/17 00:42:09;;;;;;;7.050001;5.9;;;;;;;10.17;91.83105;94817.11;;;;
2022/09/17 00:43:11;;;;;;;7.050001;5.9;;;;;;;10.17;91.83105;94817.11;;;;
2022/09/17 00:44:12;;;;;;;7.050001;5.9;;;;;;;10.17;91.83105;94817.11;;;;
2022/09/17 00:45:48;;;;;;;7.050001;5.9;;;;;;;10.17;91.83105;94817.11;;;;
2022/09/17 00:46:49;;;;;;;7.050001;5.9;;;;;;;10.17;91.83105;94817.11;;;;
2022/09/17 00:47:50;;;;;;;5.45;4.95;;;;;;;10.25;91.83398;94836.22;;;;
2022/09/17 00:48:56;;;;;;;5.45;4.95;;;;;;;10.25;91.83398;94836.22;;;;
2022/09/17 00:50:00;;;;;;;5.45;4.95;;;;;;;10.25;91.83398;94836.22;;;;
2022/09/17 00:51:05;;;;;;;5.45;4.95;;;;;;;10.25;91.83398;94836.22;;;;
2022/09/17 00:52:09;;;;;;;5.45;4.95;;;;;;;10.25;91.83398;94836.22;;;;
2022/09/17 00:53:14;;;;;;;5.45;4.95;;;;;;;10.25;91.83398;94836.22;;;;
2022/09/17 00:54:18;;;;;;;5.45;4.95;;;;;;;10.25;91.83398;94836.22;;;;
2022/09/17 00:55:19;;;;;;;5.45;4.95;;;;;;;10.25;91.83398;94836.22;;;;
2022/09/17 00:56:23;;;;;;;5.45;4.95;;;;;;;10.25;91.83398;94836.22;;;;
2022/09/17 00:57:27;;;;;;;5.45;4.95;;;;;;;10.25;91.83398;94836.22;;;;
2022/09/17 00:58:30;;;;;;;6.449999;5.3;;;;;;;10.3;91.83691;94832.31;;;;
2022/09/17 00:59:32;;;;;;;6.449999;5.3;;;;;;;10.3;91.83691;94832.31;;;;
2022/09/17 01:00:33;;;;;;;6.449999;5.3;;;;;;;10.3;91.83691;94832.31;;;;
2022/09/17 01:01:34;;;;;;;6.449999;5.3;;;;;;;10.3;91.83691;94832.31;;;;
2022/09/17 01:02:35;;;;;;;6.449999;5.3;;;;;;;10.3;91.83691;94832.31;;;;
2022/09/17 01:03:36;;;;;;;6.449999;5.3;;;;;;;10.3;91.83691;94832.31;;;;
2022/09/17 01:04:37;;;;;;;6.449999;5.3;;;;;;;10.3;91.83691;94832.31;;;;
2022/09/17 01:05:37;;;;;;;6.449999;5.3;;;;;;;10.3;91.83691;94832.31;;;;
2022/09/17 01:06:43;;;;;;;6.449999;5.3;;;;;;;10.3;91.83691;94832.31;;;;
2022/09/17 01:07:54;;;;;;;6.449999;5.3;;;;;;;10.3;91.83691;94832.31;;;;
2022/09/17 01:09:04;;;;;;;4.950001;4.450001;;;;;;;10.31;91.78516;94833.5;;;;
2022/09/17 01:10:21;;;;;;;4.950001;4.450001;;;;;;;10.31;91.78516;94833.5;;;;
2022/09/17 01:11:36;;;;;;;4.950001;4.450001;;;;;;;10.31;91.78516;94833.5;;;;
2022/09/17 01:12:51;;;;;;;4.950001;4.450001;;;;;;;10.31;91.78516;94833.5;;;;
2022/09/17 01:14:05;;;;;;;4.950001;4.450001;;;;;;;10.31;91.78516;94833.5;;;;
2022/09/17 01:15:21;;;;;;;4.950001;4.450001;;;;;;;10.31;91.78516;94833.5;;;;
2022/09/17 01:16:29;;;;;;;4.950001;4.450001;;;;;;;10.31;91.78516;94833.5;;;;
2022/09/17 01:17:38;;;;;;;4.950001;4.450001;;;;;;;10.31;91.78516;94833.5;;;;
2022/09/17 01:18:48;;;;;;;4.950001;4.450001;;;;;;;10.31;91.78516;94833.5;;;;
2022/09/17 01:19:59;;;;;;;5.449999;4.199999;;;;;;;10.36;91.80371;94826.64;;;;
2022/09/17 01:21:48;;;;;;;5.449999;4.199999;;;;;;;10.36;91.80371;94826.64;;;;
2022/09/17 01:22:58;;;;;;;5.449999;4.199999;;;;;;;10.36;91.80371;94826.64;;;;
2022/09/17 01:24:20;;;;;;;5.449999;4.199999;;;;;;;10.36;91.80371;94826.64;;;;
2022/09/17 01:26:36;;;;;;;5.449999;4.199999;;;;;;;10.36;91.80371;94826.64;;;;
2022/09/17 01:27:57;;;;;;;5.449999;4.199999;;;;;;;10.36;91.80371;94826.64;;;;
2022/09/17 01:29:14;;;;;;;5.449999;4.199999;;;;;;;10.36;91.80371;94826.64;;;;
2022/09/17 01:30:31;;;;;;;4.650001;4.25;;;;;;;10.31;91.61426;94829.94;;;;
2022/09/17 01:31:55;;;;;;;4.650001;4.25;;;;;;;10.31;91.61426;94829.94;;;;
2022/09/17 01:33:04;;;;;;;4.650001;4.25;;;;;;;10.31;91.61426;94829.94;;;;
2022/09/17 01:34:14;;;;;;;4.650001;4.25;;;;;;;10.31;91.61426;94829.94;;;;
2022/09/17 01:35:21;;;;;;;4.650001;4.25;;;;;;;10.31;91.61426;94829.94;;;;
2022/09/17 01:36:31;;;;;;;4.650001;4.25;;;;;;;10.31;91.61426;94829.94;;;;
2022/09/17 01:37:44;;;;;;;4.650001;4.25;;;;;;;10.31;91.61426;94829.94;;;;
2022/09/17 01:38:53;;;;;;;4.650001;4.25;;;;;;;10.31;91.61426;94829.94;;;;
2022/09/17 01:40:02;;;;;;;4.650001;4.25;;;;;;;10.31;91.61426;94829.94;;;;
2022/09/17 01:41:11;;;;;;;5.900001;4.8;;;;;;;10.3;91.70605;94831.08;;;;
2022/09/17 01:42:25;;;;;;;5.900001;4.8;;;;;;;10.3;91.70605;94831.08;;;;
2022/09/17 01:43:35;;;;;;;5.900001;4.8;;;;;;;10.3;91.70605;94831.08;;;;
2022/09/17 01:44:42;;;;;;;5.900001;4.8;;;;;;;10.3;91.70605;94831.08;;;;
2022/09/17 01:45:51;;;;;;;5.900001;4.8;;;;;;;10.3;91.70605;94831.08;;;;
2022/09/17 01:46:56;;;;;;;5.900001;4.8;;;;;;;10.3;91.70605;94831.08;;;;
2022/09/17 01:48:04;;;;;;;5.900001;4.8;;;;;;;10.3;91.70605;94831.08;;;;
2022/09/17 01:49:10;;;;;;;5.900001;4.8;;;;;;;10.3;91.70605;94831.08;;;;
2022/09/17 01:50:16;;;;;;;5.900001;4.8;;;;;;;10.3;91.70605;94831.08;;;;
2022/09/17 01:51:21;;;;;;;5.900001;4.8;;;;;;;10.3;91.70605;94831.08;;;;
2022/09/17 01:52:25;;;;;;;5.6;4.3;;;;;;;10.3;91.67676;94828.34;;;;
2022/09/17 01:53:27;;;;;;;5.6;4.3;;;;;;;10.3;91.67676;94828.34;;;;
2022/09/17 01:54:31;;;;;;;5.6;4.3;;;;;;;10.3;91.67676;94828.34;;;;
2022/09/17 01:55:38;;;;;;;5.6;4.3;;;;;;;10.3;91.67676;94828.34;;;;
2022/09/17 01:56:42;;;;;;;5.6;4.3;;;;;;;10.3;91.67676;94828.34;;;;
2022/09/17 01:57:47;;;;;;;5.6;4.3;;;;;;;10.3;91.67676;94828.34;;;;
2022/09/17 01:58:52;;;;;;;5.6;4.3;;;;;;;10.3;91.67676;94828.34;;;;
2022/09/17 02:00:00;;;;;;;5.6;4.3;;;;;;;10.3;91.67676;94828.34;;;;
2022/09/17 02:01:06;;;;;;;5.6;4.3;;;;;;;10.3;91.67676;94828.34;;;;
2022/09/17 02:02:12;;;;;;;5.6;4.3;;;;;;;10.3;91.67676;94828.34;;;;
2022/09/17 02:03:16;;;;;;;5.400001;4.2;;;;;;;10.29;91.65137;94828.56;;;;
2022/09/17 02:04:21;;;;;;;5.400001;4.2;;;;;;;10.29;91.65137;94828.56;;;;
2022/09/17 02:05:27;;;;;;;5.400001;4.2;;;;;;;10.29;91.65137;94828.56;;;;
2022/09/17 02:06:35;;;;;;;5.400001;4.2;;;;;;;10.29;91.65137;94828.56;;;;
2022/09/17 02:07:40;;;;;;;5.400001;4.2;;;;;;;10.29;91.65137;94828.56;;;;
2022/09/17 02:08:44;;;;;;;5.400001;4.2;;;;;;;10.29;91.65137;94828.56;;;;
2022/09/17 02:09:50;;;;;;;5.400001;4.2;;;;;;;10.29;91.65137;94828.56;;;;
2022/09/17 02:10:57;;;;;;;5.400001;4.2;;;;;;;10.29;91.65137;94828.56;;;;
2022/09/17 02:12:02;;;;;;;5.400001;4.2;;;;;;;10.29;91.65137;94828.56;;;;
2022/09/17 02:13:09;;;;;;;6.9;4.55;;;;;;;10.29;91.76855;94832.12;;;;
2022/09/17 02:14:16;;;;;;;6.9;4.55;;;;;;;10.29;91.76855;94832.12;;;;
2022/09/17 02:15:21;;;;;;;6.9;4.55;;;;;;;10.29;91.76855;94832.12;;;;
2022/09/17 02:16:29;;;;;;;6.9;4.55;;;;;;;10.29;91.76855;94832.12;;;;
2022/09/17 02:17:32;;;;;;;6.9;4.55;;;;;;;10.29;91.76855;94832.12;;;;
2022/09/17 02:18:37;;;;;;;6.9;4.55;;;;;;;10.29;91.76855;94832.12;;;;
2022/09/17 02:19:44;;;;;;;6.9;4.55;;;;;;;10.29;91.76855;94832.12;;;;
2022/09/17 02:20:45;;;;;;;6.9;4.55;;;;;;;10.29;91.76855;94832.12;;;;
2022/09/17 02:21:51;;;;;;;6.9;4.55;;;;;;;10.29;91.76855;94832.12;;;;
2022/09/17 02:23:01;;;;;;;6.9;4.55;;;;;;;10.29;91.76855;94832.12;;;;
2022/09/17 02:24:10;;;;;;;5.649999;4.05;;;;;;;10.32;91.82813;94819.78;;;;
2022/09/17 02:25:15;;;;;;;5.649999;4.05;;;;;;;10.32;91.82813;94819.78;;;;
2022/09/17 02:26:25;;;;;;;5.649999;4.05;;;;;;;10.32;91.82813;94819.78;;;;
2022/09/17 02:27:26;;;;;;;5.649999;4.05;;;;;;;10.32;91.82813;94819.78;;;;
2022/09/17 02:28:38;;;;;;;5.649999;4.05;;;;;;;10.32;91.82813;94819.78;;;;
2022/09/17 02:29:44;;;;;;;5.649999;4.05;;;;;;;10.32;91.82813;94819.78;;;;
2022/09/17 02:30:45;;;;;;;5.649999;4.05;;;;;;;10.32;91.82813;94819.78;;;;
2022/09/17 02:31:45;;;;;;;5.649999;4.05;;;;;;;10.32;91.82813;94819.78;;;;
2022/09/17 02:32:46;;;;;;;5.649999;4.05;;;;;;;10.32;91.82813;94819.78;;;;
2022/09/17 02:33:47;;;;;;;5.649999;4.05;;;;;;;10.32;91.82813;94819.78;;;;
2022/09/17 02:34:54;;;;;;;5.85;4;;;;;;;10.3;91.83691;94808.12;;;;
2022/09/17 02:35:55;;;;;;;5.85;4;;;;;;;10.3;91.83691;94808.12;;;;
2022/09/17 02:36:55;;;;;;;5.85;4;;;;;;;10.3;91.83691;94808.12;;;;
2022/09/17 02:37:58;;;;;;;5.85;4;;;;;;;10.3;91.83691;94808.12;;;;
2022/09/17 02:39:00;;;;;;;5.85;4;;;;;;;10.3;91.83691;94808.12;;;;
2022/09/17 02:40:03;;;;;;;5.85;4;;;;;;;10.3;91.83691;94808.12;;;;
2022/09/17 02:41:04;;;;;;;5.85;4;;;;;;;10.3;91.83691;94808.12;;;;
2022/09/17 02:42:16;;;;;;;5.85;4;;;;;;;10.3;91.83691;94808.12;;;;
2022/09/17 02:43:24;;;;;;;5.85;4;;;;;;;10.3;91.83691;94808.12;;;;
2022/09/17 02:44:33;;;;;;;5.85;4;;;;;;;10.3;91.83691;94808.12;;;;
2022/09/17 02:45:45;;;;;;;5.750001;4.1;;;;;;;10.29;91.86523;94792.91;;;;
2022/09/17 02:46:56;;;;;;;5.750001;4.1;;;;;;;10.29;91.86523;94792.91;;;;
2022/09/17 02:48:20;;;;;;;5.750001;4.1;;;;;;;10.29;91.86523;94792.91;;;;
2022/09/17 02:49:35;;;;;;;5.750001;4.1;;;;;;;10.29;91.86523;94792.91;;;;
2022/09/17 02:50:52;;;;;;;5.750001;4.1;;;;;;;10.29;91.86523;94792.91;;;;
2022/09/17 02:52:10;;;;;;;5.750001;4.1;;;;;;;10.29;91.86523;94792.91;;;;
2022/09/17 02:53:20;;;;;;;5.750001;4.1;;;;;;;10.29;91.86523;94792.91;;;;
2022/09/17 02:54:34;;;;;;;5.750001;4.1;;;;;;;10.29;91.86523;94792.91;;;;
2022/09/17 02:55:41;;;;;;;5.750001;4.1;;;;;;;10.29;91.86523;94792.91;;;;
2022/09/17 02:56:50;;;;;;;5.3;4.15;;;;;;;10.28;91.86328;94773.72;;;;
2022/09/17 02:58:03;;;;;;;5.3;4.15;;;;;;;10.28;91.86328;94773.72;;;;
2022/09/17 02:59:18;;;;;;;5.3;4.15;;;;;;;10.28;91.86328;94773.72;;;;
2022/09/17 03:00:25;;;;;;;5.3;4.15;;;;;;;10.28;91.86328;94773.72;;;;
2022/09/17 03:01:25;;;;;;;5.3;4.15;;;;;;;10.28;91.86328;94773.72;;;;
2022/09/17 03:02:33;;;;;;;5.3;4.15;;;;;;;10.28;91.86328;94773.72;;;;
2022/09/17 03:03:38;;;;;;;5.3;4.15;;;;;;;10.28;91.86328;94773.72;;;;
2022/09/17 03:04:45;;;;;;;5.3;4.15;;;;;;;10.28;91.86328;94773.72;;;;
2022/09/17 03:05:48;;;;;;;5.3;4.15;;;;;;;10.28;91.86328;94773.72;;;;
2022/09/17 03:06:49;;;;;;;5.299999;4;;;;;;;10.25;91.83398;94771.5;;;;
2022/09/17 03:07:51;;;;;;;5.299999;4;;;;;;;10.25;91.83398;94771.5;;;;
2022/09/17 03:08:56;;;;;;;5.299999;4;;;;;;;10.25;91.83398;94771.5;;;;
2022/09/17 03:09:56;;;;;;;5.299999;4;;;;;;;10.25;91.83398;94771.5;;;;
2022/09/17 03:10:57;;;;;;;5.299999;4;;;;;;;10.25;91.83398;94771.5;;;;
2022/09/17 03:11:57;;;;;;;5.299999;4;;;;;;;10.25;91.83398;94771.5;;;;
2022/09/17 03:12:58;;;;;;;5.299999;4;;;;;;;10.25;91.83398;94771.5;;;;
2022/09/17 03:13:59;;;;;;;5.299999;4;;;;;;;10.25;91.83398;94771.5;;;;
2022/09/17 03:14:59;;;;;;;5.299999;4;;;;;;;10.25;91.83398;94771.5;;;;
2022/09/17 03:16:00;;;;;;;5.299999;4;;;;;;;10.25;91.83398;94771.5;;;;
2022/09/17 03:17:02;;;;;;;5.299999;4;;;;;;;10.25;91.83398;94771.5;;;;
2022/09/17 03:18:03;;;;;;;4.650001;3.65;;;;;;;10.28;91.86328;94771.46;;;;
2022/09/17 03:19:03;;;;;;;4.650001;3.65;;;;;;;10.28;91.86328;94771.46;;;;
2022/09/17 03:20:04;;;;;;;4.650001;3.65;;;;;;;10.28;91.86328;94771.46;;;;
2022/09/17 03:21:06;;;;;;;4.650001;3.65;;;;;;;10.28;91.86328;94771.46;;;;
2022/09/17 03:22:06;;;;;;;4.650001;3.65;;;;;;;10.28;91.86328;94771.46;;;;
2022/09/17 03:23:07;;;;;;;4.650001;3.65;;;;;;;10.28;91.86328;94771.46;;;;
2022/09/17 03:24:09;;;;;;;4.650001;3.65;;;;;;;10.28;91.86328;94771.46;;;;
2022/09/17 03:25:10;;;;;;;4.650001;3.65;;;;;;;10.28;91.86328;94771.46;;;;
2022/09/17 03:26:10;;;;;;;4.650001;3.65;;;;;;;10.28;91.86328;94771.46;;;;
2022/09/17 03:27:11;;;;;;;4.650001;3.65;;;;;;;10.28;91.86328;94771.46;;;;
2022/09/17 03:28:11;;;;;;;5.15;4;;;;;;;10.27;91.74316;94773.42;;;;
2022/09/17 03:29:12;;;;;;;5.15;4;;;;;;;10.27;91.74316;94773.42;;;;
2022/09/17 03:30:12;;;;;;;5.15;4;;;;;;;10.27;91.74316;94773.42;;;;
2022/09/17 03:31:13;;;;;;;5.15;4;;;;;;;10.27;91.74316;94773.42;;;;
2022/09/17 03:32:13;;;;;;;5.15;4;;;;;;;10.27;91.74316;94773.42;;;;
2022/09/17 03:33:14;;;;;;;5.15;4;;;;;;;10.27;91.74316;94773.42;;;;
2022/09/17 03:34:14;;;;;;;5.15;4;;;;;;;10.27;91.74316;94773.42;;;;
2022/09/17 03:35:15;;;;;;;5.15;4;;;;;;;10.27;91.74316;94773.42;;;;
2022/09/17 03:36:16;;;;;;;5.15;4;;;;;;;10.27;91.74316;94773.42;;;;
2022/09/17 03:37:16;;;;;;;5.15;4;;;;;;;10.27;91.74316;94773.42;;;;
2022/09/17 03:38:16;;;;;;;5.15;4;;;;;;;10.27;91.74316;94773.42;;;;
2022/09/17 03:39:17;;;;;;;4.35;3.95;;;;;;;10.16;91.51855;94774.98;;;;
2022/09/17 03:40:18;;;;;;;4.35;3.95;;;;;;;10.16;91.51855;94774.98;;;;
2022/09/17 03:41:19;;;;;;;4.35;3.95;;;;;;;10.16;91.51855;94774.98;;;;
2022/09/17 03:42:19;;;;;;;4.35;3.95;;;;;;;10.16;91.51855;94774.98;;;;
2022/09/17 03:43:20;;;;;;;4.35;3.95;;;;;;;10.16;91.51855;94774.98;;;;
2022/09/17 03:44:22;;;;;;;4.35;3.95;;;;;;;10.16;91.51855;94774.98;;;;
2022/09/17 03:45:23;;;;;;;4.35;3.95;;;;;;;10.16;91.51855;94774.98;;;;
2022/09/17 03:46:23;;;;;;;4.35;3.95;;;;;;;10.16;91.51855;94774.98;;;;
2022/09/17 03:47:24;;;;;;;4.35;3.95;;;;;;;10.16;91.51855;94774.98;;;;
2022/09/17 03:48:24;;;;;;;4.35;3.95;;;;;;;10.16;91.51855;94774.98;;;;
2022/09/17 03:49:25;;;;;;;4.1;3.7;;;;;;;9.94;91.46094;94771.54;;;;
2022/09/17 03:50:25;;;;;;;4.1;3.7;;;;;;;9.94;91.46094;94771.54;;;;
2022/09/17 03:51:26;;;;;;;4.1;3.7;;;;;;;9.94;91.46094;94771.54;;;;
2022/09/17 03:52:27;;;;;;;4.1;3.7;;;;;;;9.94;91.46094;94771.54;;;;
2022/09/17 03:53:27;;;;;;;4.1;3.7;;;;;;;9.94;91.46094;94771.54;;;;
2022/09/17 03:54:28;;;;;;;4.1;3.7;;;;;;;9.94;91.46094;94771.54;;;;
2022/09/17 03:55:28;;;;;;;4.1;3.7;;;;;;;9.94;91.46094;94771.54;;;;
2022/09/17 03:56:29;;;;;;;4.1;3.7;;;;;;;9.94;91.46094;94771.54;;;;
2022/09/17 03:57:29;;;;;;;4.1;3.7;;;;;;;9.94;91.46094;94771.54;;;;
2022/09/17 03:58:30;;;;;;;4.1;3.7;;;;;;;9.94;91.46094;94771.54;;;;
2022/09/17 03:59:31;;;;;;;4.1;3.7;;;;;;;9.94;91.46094;94771.54;;;;
2022/09/17 04:00:31;;;;;;;4.95;3.8;;;;;;;9.79;91.51465;94775.05;;;;
2022/09/17 04:01:32;;;;;;;4.95;3.8;;;;;;;9.79;91.51465;94775.05;;;;
2022/09/17 04:02:33;;;;;;;4.95;3.8;;;;;;;9.79;91.51465;94775.05;;;;
2022/09/17 04:03:34;;;;;;;4.95;3.8;;;;;;;9.79;91.51465;94775.05;;;;
2022/09/17 04:04:35;;;;;;;4.95;3.8;;;;;;;9.79;91.51465;94775.05;;;;
2022/09/17 04:05:35;;;;;;;4.95;3.8;;;;;;;9.79;91.51465;94775.05;;;;
2022/09/17 04:06:36;;;;;;;4.95;3.8;;;;;;;9.79;91.51465;94775.05;;;;
2022/09/17 04:07:36;;;;;;;4.95;3.8;;;;;;;9.79;91.51465;94775.05;;;;
2022/09/17 04:08:38;;;;;;;4.95;3.8;;;;;;;9.79;91.51465;94775.05;;;;
2022/09/17 04:09:39;;;;;;;4.95;3.8;;;;;;;9.79;91.51465;94775.05;;;;
2022/09/17 04:10:39;;;;;;;5.8;3.85;;;;;;;9.61;91.53125;94773.74;;;;
2022/09/17 04:11:40;;;;;;;5.8;3.85;;;;;;;9.61;91.53125;94773.74;;;;
2022/09/17 04:12:40;;;;;;;5.8;3.85;;;;;;;9.61;91.53125;94773.74;;;;
2022/09/17 04:13:41;;;;;;;5.8;3.85;;;;;;;9.61;91.53125;94773.74;;;;
2022/09/17 04:14:41;;;;;;;5.8;3.85;;;;;;;9.61;91.53125;94773.74;;;;
2022/09/17 04:15:42;;;;;;;5.8;3.85;;;;;;;9.61;91.53125;94773.74;;;;
2022/09/17 04:16:43;;;;;;;5.8;3.85;;;;;;;9.61;91.53125;94773.74;;;;
2022/09/17 04:17:44;;;;;;;5.8;3.85;;;;;;;9.61;91.53125;94773.74;;;;
2022/09/17 04:18:44;;;;;;;5.8;3.85;;;;;;;9.61;91.53125;94773.74;;;;
2022/09/17 04:19:45;;;;;;;5.8;3.85;;;;;;;9.61;91.53125;94773.74;;;;
2022/09/17 04:20:45;;;;;;;5.8;3.85;;;;;;;9.61;91.53125;94773.74;;;;
2022/09/17 04:21:46;;;;;;;5.1;4.1;;;;;;;9.61;91.89258;94771.59;;;;
2022/09/17 04:22:46;;;;;;;5.1;4.1;;;;;;;9.61;91.89258;94771.59;;;;
2022/09/17 04:23:47;;;;;;;5.1;4.1;;;;;;;9.61;91.89258;94771.59;;;;
2022/09/17 04:24:47;;;;;;;5.1;4.1;;;;;;;9.61;91.89258;94771.59;;;;
2022/09/17 04:25:48;;;;;;;5.1;4.1;;;;;;;9.61;91.89258;94771.59;;;;
2022/09/17 04:26:48;;;;;;;5.1;4.1;;;;;;;9.61;91.89258;94771.59;;;;
2022/09/17 04:27:49;;;;;;;5.1;4.1;;;;;;;9.61;91.89258;94771.59;;;;
2022/09/17 04:28:50;;;;;;;5.1;4.1;;;;;;;9.61;91.89258;94771.59;;;;
2022/09/17 04:29:50;;;;;;;5.1;4.1;;;;;;;9.61;91.89258;94771.59;;;;
2022/09/17 04:30:51;;;;;;;5.1;4.1;;;;;;;9.61;91.89258;94771.59;;;;
2022/09/17 04:31:51;;;;;;;5.1;4.1;;;;;;;9.61;91.89258;94771.59;;;;
2022/09/17 04:32:52;;;;;;;4.75;4.3;;;;;;;9.68;92.02734;94767.86;;;;
2022/09/17 04:33:52;;;;;;;4.75;4.3;;;;;;;9.68;92.02734;94767.86;;;;
2022/09/17 04:34:53;;;;;;;4.75;4.3;;;;;;;9.68;92.02734;94767.86;;;;
2022/09/17 04:35:53;;;;;;;4.75;4.3;;;;;;;9.68;92.02734;94767.86;;;;
2022/09/17 04:36:54;;;;;;;4.75;4.3;;;;;;;9.68;92.02734;94767.86;;;;
2022/09/17 04:37:54;;;;;;;4.75;4.3;;;;;;;9.68;92.02734;94767.86;;;;
2022/09/17 04:38:56;;;;;;;4.75;4.3;;;;;;;9.68;92.02734;94767.86;;;;
2022/09/17 04:39:57;;;;;;;4.75;4.3;;;;;;;9.68;92.02734;94767.86;;;;
2022/09/17 04:40:57;;;;;;;4.75;4.3;;;;;;;9.68;92.02734;94767.86;;;;
2022/09/17 04:41:58;;;;;;;4.75;4.3;;;;;;;9.68;92.02734;94767.86;;;;
2022/09/17 04:42:58;;;;;;;7.3;4.25;;;;;;;9.7;91.94434;94782.15;;;;
2022/09/17 04:43:59;;;;;;;7.3;4.25;;;;;;;9.7;91.94434;94782.15;;;;
2022/09/17 04:44:59;;;;;;;7.3;4.25;;;;;;;9.7;91.94434;94782.15;;;;
2022/09/17 04:46:00;;;;;;;7.3;4.25;;;;;;;9.7;91.94434;94782.15;;;;
2022/09/17 04:47:01;;;;;;;7.3;4.25;;;;;;;9.7;91.94434;94782.15;;;;
2022/09/17 04:48:01;;;;;;;7.3;4.25;;;;;;;9.7;91.94434;94782.15;;;;
2022/09/17 04:49:02;;;;;;;7.3;4.25;;;;;;;9.7;91.94434;94782.15;;;;
2022/09/17 04:50:03;;;;;;;7.3;4.25;;;;;;;9.7;91.94434;94782.15;;;;
2022/09/17 04:51:04;;;;;;;7.3;4.25;;;;;;;9.7;91.94434;94782.15;;;;
2022/09/17 04:52:05;;;;;;;7.3;4.25;;;;;;;9.7;91.94434;94782.15;;;;
2022/09/17 04:53:05;;;;;;;7.3;4.25;;;;;;;9.7;91.94434;94782.15;;;;
2022/09/17 04:54:06;;;;;;;6.1;4.1;;;;;;;9.72;91.97168;94808.64;;;;
2022/09/17 04:55:06;;;;;;;6.1;4.1;;;;;;;9.72;91.97168;94808.64;;;;
2022/09/17 04:56:08;;;;;;;6.1;4.1;;;;;;;9.72;91.97168;94808.64;;;;
2022/09/17 04:57:08;;;;;;;6.1;4.1;;;;;;;9.72;91.97168;94808.64;;;;
2022/09/17 04:58:08;;;;;;;6.1;4.1;;;;;;;9.72;91.97168;94808.64;;;;
2022/09/17 04:59:09;;;;;;;6.1;4.1;;;;;;;9.72;91.97168;94808.64;;;;
2022/09/17 05:00:10;;;;;;;6.1;4.1;;;;;;;9.72;91.97168;94808.64;;;;
2022/09/17 05:01:12;;;;;;;6.1;4.1;;;;;;;9.72;91.97168;94808.64;;;;
2022/09/17 05:02:13;;;;;;;6.1;4.1;;;;;;;9.72;91.97168;94808.64;;;;
2022/09/17 05:03:13;;;;;;;6.1;4.1;;;;;;;9.72;91.97168;94808.64;;;;
2022/09/17 05:04:14;;;;;;;5.150001;3.7;;;;;;;9.87;92.28027;94865.83;;;;
2022/09/17 05:05:14;;;;;;;5.150001;3.7;;;;;;;9.87;92.28027;94865.83;;;;
2022/09/17 05:06:16;;;;;;;5.150001;3.7;;;;;;;9.87;92.28027;94865.83;;;;
2022/09/17 05:07:17;;;;;;;5.150001;3.7;;;;;;;9.87;92.28027;94865.83;;;;
2022/09/17 05:08:17;;;;;;;5.150001;3.7;;;;;;;9.87;92.28027;94865.83;;;;
2022/09/17 05:09:18;;;;;;;5.150001;3.7;;;;;;;9.87;92.28027;94865.83;;;;
2022/09/17 05:10:19;;;;;;;5.150001;3.7;;;;;;;9.87;92.28027;94865.83;;;;
2022/09/17 05:11:21;;;;;;;5.150001;3.7;;;;;;;9.87;92.28027;94865.83;;;;
2022/09/17 05:12:21;;;;;;;5.150001;3.7;;;;;;;9.87;92.28027;94865.83;;;;
2022/09/17 05:13:22;;;;;;;5.150001;3.7;;;;;;;9.87;92.28027;94865.83;;;;
2022/09/17 05:14:22;;;;;;;5.150001;3.7;;;;;;;9.87;92.28027;94865.83;;;;
2022/09/17 05:15:23;;;;;;;3.149999;2.85;;;;;;;9.94;92.05957;94879.38;;;;
2022/09/17 05:16:25;;;;;;;3.149999;2.85;;;;;;;9.94;92.05957;94879.38;;;;
2022/09/17 05:17:25;;;;;;;3.149999;2.85;;;;;;;9.94;92.05957;94879.38;;;;
2022/09/17 05:18:26;;;;;;;3.149999;2.85;;;;;;;9.94;92.05957;94879.38;;;;
2022/09/17 05:19:26;;;;;;;3.149999;2.85;;;;;;;9.94;92.05957;94879.38;;;;
2022/09/17 05:20:27;;;;;;;3.149999;2.85;;;;;;;9.94;92.05957;94879.38;;;;
2022/09/17 05:21:28;;;;;;;3.149999;2.85;;;;;;;9.94;92.05957;94879.38;;;;
2022/09/17 05:22:28;;;;;;;3.149999;2.85;;;;;;;9.94;92.05957;94879.38;;;;
2022/09/17 05:23:29;;;;;;;3.149999;2.85;;;;;;;9.94;92.05957;94879.38;;;;
2022/09/17 05:24:29;;;;;;;3.149999;2.85;;;;;;;9.94;92.05957;94879.38;;;;
2022/09/17 05:25:31;;;;;;;4.15;3.1;;;;;;;9.89;91.83594;94909.16;;;;
2022/09/17 05:26:31;;;;;;;4.15;3.1;;;;;;;9.89;91.83594;94909.16;;;;
2022/09/17 05:27:32;;;;;;;4.15;3.1;;;;;;;9.89;91.83594;94909.16;;;;
2022/09/17 05:28:33;;;;;;;4.15;3.1;;;;;;;9.89;91.83594;94909.16;;;;
2022/09/17 05:29:33;;;;;;;4.15;3.1;;;;;;;9.89;91.83594;94909.16;;;;
2022/09/17 05:30:34;;;;;;;4.15;3.1;;;;;;;9.89;91.83594;94909.16;;;;
2022/09/17 05:31:34;;;;;;;4.15;3.1;;;;;;;9.89;91.83594;94909.16;;;;
2022/09/17 05:32:35;;;;;;;4.15;3.1;;;;;;;9.89;91.83594;94909.16;;;;
2022/09/17 05:33:36;;;;;;;4.15;3.1;;;;;;;9.89;91.83594;94909.16;;;;
2022/09/17 05:34:36;;;;;;;4.15;3.1;;;;;;;9.89;91.83594;94909.16;;;;
2022/09/17 05:35:37;;;;;;;4.15;3.1;;;;;;;9.89;91.83594;94909.16;;;;
2022/09/17 05:36:37;;;;;;;3.35;3.05;;;;;;;9.83;91.80078;94930.66;;;;
2022/09/17 05:37:38;;;;;;;3.35;3.05;;;;;;;9.83;91.80078;94930.66;;;;
2022/09/17 05:38:39;;;;;;;3.35;3.05;;;;;;;9.83;91.80078;94930.66;;;;
2022/09/17 05:39:39;;;;;;;3.35;3.05;;;;;;;9.83;91.80078;94930.66;;;;
2022/09/17 05:40:40;;;;;;;3.35;3.05;;;;;;;9.83;91.80078;94930.66;;;;
2022/09/17 05:41:40;;;;;;;3.35;3.05;;;;;;;9.83;91.80078;94930.66;;;;
2022/09/17 05:42:41;;;;;;;3.35;3.05;;;;;;;9.83;91.80078;94930.66;;;;
2022/09/17 05:43:41;;;;;;;3.35;3.05;;;;;;;9.83;91.80078;94930.66;;;;
2022/09/17 05:44:42;;;;;;;3.35;3.05;;;;;;;9.83;91.80078;94930.66;;;;
2022/09/17 05:45:42;;;;;;;3.35;3.05;;;;;;;9.83;91.80078;94930.66;;;;
2022/09/17 05:46:43;;;;;;;4.550001;2.900001;;;;;;;9.83;91.81348;94944.26;;;;
2022/09/17 05:47:43;;;;;;;4.550001;2.900001;;;;;;;9.83;91.81348;94944.26;;;;
2022/09/17 05:48:44;;;;;;;4.550001;2.900001;;;;;;;9.83;91.81348;94944.26;;;;
2022/09/17 05:49:44;;;;;;;4.550001;2.900001;;;;;;;9.83;91.81348;94944.26;;;;
2022/09/17 05:50:45;;;;;;;4.550001;2.900001;;;;;;;9.83;91.81348;94944.26;;;;
2022/09/17 05:51:47;;;;;;;4.550001;2.900001;;;;;;;9.83;91.81348;94944.26;;;;
2022/09/17 05:52:49;;;;;;;4.550001;2.900001;;;;;;;9.83;91.81348;94944.26;;;;
2022/09/17 05:53:50;;;;;;;4.550001;2.900001;;;;;;;9.83;91.81348;94944.26;;;;
2022/09/17 05:54:53;;;;;;;4.550001;2.900001;;;;;;;9.83;91.81348;94944.26;;;;